sensor_id;sensor_type;location;lat;lon;timestamp;P1;durP1;ratioP1;P2;durP2;ratioP2
8183;SDS011;4133;48.752;9.088;2023-04-15T00:00:11;2.27;;;1.60;;
8183;SDS011;4133;48.752;9.088;2023-04-15T00:02:37;3.57;;;2.03;;
8183;SDS011;4133;48.752;9.088;2023-04-15T00:05:03;3.37;;;1.43;;
8183;SDS011;4133;48.752;9.088;2023-04-15T00:07:30;2.27;;;1.20;;
8183;SDS011;4133;48.752;9.088;2023-04-15T00:09:56;5.23;;;1.70;;
8183;SDS011;4133;48.752;9.088;2023-04-15T00:12:23;3.57;;;1.60;;
8183;SDS011;4133;48.752;9.088;2023-04-15T00:14:49;3.80;;;1.70;;
8183;SDS011;4133;48.752;9.088;2023-04-15T00:17:15;2.90;;;1.43;;
8183;SDS011;4133;48.752;9.088;2023-04-15T00:19:44;3.33;;;1.30;;
8183;SDS011;4133;48.752;9.088;2023-04-15T00:22:11;1.87;;;1.37;;
8183;SDS011;4133;48.752;9.088;2023-04-15T00:24:37;2.57;;;1.40;;
8183;SDS011;4133;48.752;9.088;2023-04-15T00:27:03;2.30;;;1.30;;
8183;SDS011;4133;48.752;9.088;2023-04-15T00:29:29;4.50;;;1.80;;
8183;SDS011;4133;48.752;9.088;2023-04-15T00:31:55;2.23;;;1.60;;
8183;SDS011;4133;48.752;9.088;2023-04-15T00:34:25;4.63;;;1.80;;
8183;SDS011;4133;48.752;9.088;2023-04-15T00:36:52;4.67;;;1.90;;
8183;SDS011;4133;48.752;9.088;2023-04-15T00:39:19;5.10;;;1.80;;
8183;SDS011;4133;48.752;9.088;2023-04-15T00:41:45;3.87;;;1.90;;
8183;SDS011;4133;48.752;9.088;2023-04-15T00:44:11;5.03;;;1.50;;
8183;SDS011;4133;48.752;9.088;2023-04-15T00:46:37;2.50;;;1.83;;
8183;SDS011;4133;48.752;9.088;2023-04-15T00:49:04;3.47;;;1.80;;
8183;SDS011;4133;48.752;9.088;2023-04-15T00:51:31;5.60;;;2.07;;
8183;SDS011;4133;48.752;9.088;2023-04-15T00:54:01;4.70;;;2.03;;
8183;SDS011;4133;48.752;9.088;2023-04-15T00:56:27;3.03;;;1.80;;
8183;SDS011;4133;48.752;9.088;2023-04-15T00:58:54;3.83;;;2.03;;
8183;SDS011;4133;48.752;9.088;2023-04-15T01:01:20;4.27;;;1.80;;
8183;SDS011;4133;48.752;9.088;2023-04-15T01:03:48;3.83;;;1.80;;
8183;SDS011;4133;48.752;9.088;2023-04-15T01:06:14;4.53;;;1.70;;
8183;SDS011;4133;48.752;9.088;2023-04-15T01:08:40;4.93;;;1.97;;
8183;SDS011;4133;48.752;9.088;2023-04-15T01:11:06;5.03;;;1.93;;
8183;SDS011;4133;48.752;9.088;2023-04-15T01:13:34;3.27;;;1.87;;
8183;SDS011;4133;48.752;9.088;2023-04-15T01:16:01;4.60;;;1.60;;
8183;SDS011;4133;48.752;9.088;2023-04-15T01:18:27;3.07;;;1.60;;
8183;SDS011;4133;48.752;9.088;2023-04-15T01:20:54;2.27;;;1.60;;
8183;SDS011;4133;48.752;9.088;2023-04-15T01:23:20;2.57;;;1.63;;
8183;SDS011;4133;48.752;9.088;2023-04-15T01:25:50;4.00;;;1.87;;
8183;SDS011;4133;48.752;9.088;2023-04-15T01:28:16;1.37;;;1.27;;
8183;SDS011;4133;48.752;9.088;2023-04-15T01:30:42;5.13;;;1.77;;
8183;SDS011;4133;48.752;9.088;2023-04-15T01:33:08;4.40;;;1.73;;
8183;SDS011;4133;48.752;9.088;2023-04-15T01:35:35;3.27;;;1.80;;
8183;SDS011;4133;48.752;9.088;2023-04-15T01:38:05;2.27;;;1.50;;
8183;SDS011;4133;48.752;9.088;2023-04-15T01:40:31;3.70;;;1.80;;
8183;SDS011;4133;48.752;9.088;2023-04-15T01:42:58;2.13;;;1.93;;
8183;SDS011;4133;48.752;9.088;2023-04-15T01:45:24;5.03;;;1.87;;
8183;SDS011;4133;48.752;9.088;2023-04-15T01:47:50;6.07;;;2.07;;
8183;SDS011;4133;48.752;9.088;2023-04-15T01:50:16;4.40;;;2.00;;
8183;SDS011;4133;48.752;9.088;2023-04-15T01:52:43;4.67;;;2.03;;
8183;SDS011;4133;48.752;9.088;2023-04-15T01:55:09;4.87;;;2.20;;
8183;SDS011;4133;48.752;9.088;2023-04-15T01:57:34;2.90;;;2.00;;
8183;SDS011;4133;48.752;9.088;2023-04-15T02:00:01;4.30;;;1.77;;
8183;SDS011;4133;48.752;9.088;2023-04-15T02:02:29;3.20;;;1.90;;
8183;SDS011;4133;48.752;9.088;2023-04-15T02:04:55;2.10;;;1.90;;
8183;SDS011;4133;48.752;9.088;2023-04-15T02:07:21;4.13;;;2.10;;
8183;SDS011;4133;48.752;9.088;2023-04-15T02:09:47;5.60;;;2.00;;
8183;SDS011;4133;48.752;9.088;2023-04-15T02:12:13;3.03;;;1.60;;
8183;SDS011;4133;48.752;9.088;2023-04-15T02:14:39;3.97;;;1.90;;
8183;SDS011;4133;48.752;9.088;2023-04-15T02:17:05;5.10;;;1.87;;
8183;SDS011;4133;48.752;9.088;2023-04-15T02:22:06;3.43;;;2.00;;
8183;SDS011;4133;48.752;9.088;2023-04-15T02:24:33;3.93;;;2.00;;
8183;SDS011;4133;48.752;9.088;2023-04-15T02:26:59;3.07;;;1.80;;
8183;SDS011;4133;48.752;9.088;2023-04-15T02:29:26;2.00;;;1.70;;
8183;SDS011;4133;48.752;9.088;2023-04-15T02:31:52;4.17;;;1.87;;
8183;SDS011;4133;48.752;9.088;2023-04-15T02:34:18;2.60;;;1.80;;
8183;SDS011;4133;48.752;9.088;2023-04-15T02:36:44;3.67;;;1.90;;
8183;SDS011;4133;48.752;9.088;2023-04-15T02:39:12;6.27;;;1.90;;
8183;SDS011;4133;48.752;9.088;2023-04-15T02:41:40;5.73;;;2.60;;
8183;SDS011;4133;48.752;9.088;2023-04-15T02:44:07;4.63;;;2.23;;
8183;SDS011;4133;48.752;9.088;2023-04-15T02:46:33;6.40;;;2.47;;
8183;SDS011;4133;48.752;9.088;2023-04-15T02:49:00;2.97;;;2.03;;
8183;SDS011;4133;48.752;9.088;2023-04-15T02:51:29;3.33;;;2.13;;
8183;SDS011;4133;48.752;9.088;2023-04-15T02:53:56;6.17;;;2.40;;
8183;SDS011;4133;48.752;9.088;2023-04-15T02:56:22;7.83;;;2.77;;
8183;SDS011;4133;48.752;9.088;2023-04-15T02:58:48;8.30;;;2.80;;
8183;SDS011;4133;48.752;9.088;2023-04-15T03:01:20;3.83;;;2.40;;
8183;SDS011;4133;48.752;9.088;2023-04-15T03:03:46;4.50;;;2.27;;
8183;SDS011;4133;48.752;9.088;2023-04-15T03:06:12;5.70;;;2.50;;
8183;SDS011;4133;48.752;9.088;2023-04-15T03:08:38;5.23;;;2.17;;
8183;SDS011;4133;48.752;9.088;2023-04-15T03:11:04;5.37;;;2.37;;
8183;SDS011;4133;48.752;9.088;2023-04-15T03:13:31;5.50;;;2.70;;
8183;SDS011;4133;48.752;9.088;2023-04-15T03:15:57;6.57;;;2.80;;
8183;SDS011;4133;48.752;9.088;2023-04-15T03:18:25;8.00;;;2.63;;
8183;SDS011;4133;48.752;9.088;2023-04-15T03:20:52;7.07;;;2.77;;
8183;SDS011;4133;48.752;9.088;2023-04-15T03:23:18;4.93;;;2.40;;
8183;SDS011;4133;48.752;9.088;2023-04-15T03:25:44;6.97;;;2.90;;
8183;SDS011;4133;48.752;9.088;2023-04-15T03:28:10;6.87;;;2.83;;
8183;SDS011;4133;48.752;9.088;2023-04-15T03:30:36;5.17;;;2.97;;
8183;SDS011;4133;48.752;9.088;2023-04-15T03:33:02;7.17;;;2.70;;
8183;SDS011;4133;48.752;9.088;2023-04-15T03:35:28;6.53;;;2.70;;
8183;SDS011;4133;48.752;9.088;2023-04-15T03:37:54;6.17;;;2.70;;
8183;SDS011;4133;48.752;9.088;2023-04-15T03:40:21;8.27;;;2.80;;
8183;SDS011;4133;48.752;9.088;2023-04-15T03:42:47;6.93;;;3.10;;
8183;SDS011;4133;48.752;9.088;2023-04-15T03:45:13;6.13;;;2.80;;
8183;SDS011;4133;48.752;9.088;2023-04-15T03:47:39;5.90;;;2.70;;
8183;SDS011;4133;48.752;9.088;2023-04-15T03:50:05;5.40;;;2.77;;
8183;SDS011;4133;48.752;9.088;2023-04-15T03:52:44;5.77;;;2.80;;
8183;SDS011;4133;48.752;9.088;2023-04-15T03:55:10;4.07;;;2.33;;
8183;SDS011;4133;48.752;9.088;2023-04-15T03:57:36;5.97;;;2.83;;
8183;SDS011;4133;48.752;9.088;2023-04-15T04:00:06;5.93;;;2.50;;
8183;SDS011;4133;48.752;9.088;2023-04-15T04:02:35;4.83;;;2.70;;
8183;SDS011;4133;48.752;9.088;2023-04-15T04:05:02;4.67;;;2.60;;
8183;SDS011;4133;48.752;9.088;2023-04-15T04:07:28;5.87;;;2.50;;
8183;SDS011;4133;48.752;9.088;2023-04-15T04:09:55;3.37;;;2.27;;
8183;SDS011;4133;48.752;9.088;2023-04-15T04:12:21;4.73;;;2.43;;
8183;SDS011;4133;48.752;9.088;2023-04-15T04:14:47;4.40;;;2.67;;
8183;SDS011;4133;48.752;9.088;2023-04-15T04:17:13;5.97;;;2.80;;
8183;SDS011;4133;48.752;9.088;2023-04-15T04:19:53;6.97;;;2.40;;
8183;SDS011;4133;48.752;9.088;2023-04-15T04:22:22;5.33;;;2.70;;
8183;SDS011;4133;48.752;9.088;2023-04-15T04:24:48;4.90;;;2.43;;
8183;SDS011;4133;48.752;9.088;2023-04-15T04:27:15;4.30;;;1.87;;
8183;SDS011;4133;48.752;9.088;2023-04-15T04:29:41;3.57;;;1.93;;
8183;SDS011;4133;48.752;9.088;2023-04-15T04:32:07;3.53;;;2.33;;
8183;SDS011;4133;48.752;9.088;2023-04-15T04:34:33;3.67;;;2.30;;
8183;SDS011;4133;48.752;9.088;2023-04-15T04:36:58;7.20;;;2.10;;
8183;SDS011;4133;48.752;9.088;2023-04-15T04:39:25;4.13;;;2.37;;
8183;SDS011;4133;48.752;9.088;2023-04-15T04:41:51;3.77;;;2.60;;
8183;SDS011;4133;48.752;9.088;2023-04-15T04:44:17;5.33;;;1.97;;
8183;SDS011;4133;48.752;9.088;2023-04-15T04:46:43;4.33;;;2.10;;
8183;SDS011;4133;48.752;9.088;2023-04-15T04:49:09;3.37;;;2.37;;
8183;SDS011;4133;48.752;9.088;2023-04-15T04:51:35;7.30;;;2.10;;
8183;SDS011;4133;48.752;9.088;2023-04-15T04:54:01;3.70;;;2.07;;
8183;SDS011;4133;48.752;9.088;2023-04-15T04:56:27;7.00;;;2.70;;
8183;SDS011;4133;48.752;9.088;2023-04-15T04:58:53;4.67;;;2.40;;
8183;SDS011;4133;48.752;9.088;2023-04-15T05:01:19;4.87;;;2.30;;
8183;SDS011;4133;48.752;9.088;2023-04-15T05:03:45;4.83;;;2.40;;
8183;SDS011;4133;48.752;9.088;2023-04-15T05:06:11;3.93;;;2.67;;
8183;SDS011;4133;48.752;9.088;2023-04-15T05:08:37;2.87;;;2.00;;
8183;SDS011;4133;48.752;9.088;2023-04-15T05:11:04;4.40;;;2.50;;
8183;SDS011;4133;48.752;9.088;2023-04-15T05:13:31;4.90;;;2.10;;
8183;SDS011;4133;48.752;9.088;2023-04-15T05:15:57;2.43;;;2.20;;
8183;SDS011;4133;48.752;9.088;2023-04-15T05:18:23;6.13;;;2.23;;
8183;SDS011;4133;48.752;9.088;2023-04-15T05:20:49;3.70;;;2.50;;
8183;SDS011;4133;48.752;9.088;2023-04-15T05:23:15;5.67;;;2.50;;
8183;SDS011;4133;48.752;9.088;2023-04-15T05:25:42;2.93;;;2.10;;
8183;SDS011;4133;48.752;9.088;2023-04-15T05:28:08;5.63;;;2.47;;
8183;SDS011;4133;48.752;9.088;2023-04-15T05:30:34;2.93;;;2.03;;
8183;SDS011;4133;48.752;9.088;2023-04-15T05:33:00;3.50;;;2.20;;
8183;SDS011;4133;48.752;9.088;2023-04-15T05:35:26;3.70;;;2.00;;
8183;SDS011;4133;48.752;9.088;2023-04-15T05:37:52;4.47;;;2.17;;
8183;SDS011;4133;48.752;9.088;2023-04-15T05:40:18;3.13;;;2.00;;
8183;SDS011;4133;48.752;9.088;2023-04-15T05:42:44;4.97;;;2.03;;
8183;SDS011;4133;48.752;9.088;2023-04-15T05:45:10;7.03;;;2.43;;
8183;SDS011;4133;48.752;9.088;2023-04-15T05:47:37;4.23;;;2.20;;
8183;SDS011;4133;48.752;9.088;2023-04-15T05:50:03;3.23;;;2.63;;
8183;SDS011;4133;48.752;9.088;2023-04-15T05:52:30;3.70;;;2.40;;
8183;SDS011;4133;48.752;9.088;2023-04-15T05:54:56;3.80;;;2.20;;
8183;SDS011;4133;48.752;9.088;2023-04-15T05:57:22;4.20;;;2.40;;
8183;SDS011;4133;48.752;9.088;2023-04-15T05:59:48;2.67;;;1.90;;
8183;SDS011;4133;48.752;9.088;2023-04-15T06:02:16;3.77;;;2.10;;
8183;SDS011;4133;48.752;9.088;2023-04-15T06:04:42;3.83;;;2.30;;
8183;SDS011;4133;48.752;9.088;2023-04-15T06:07:08;4.03;;;2.10;;
8183;SDS011;4133;48.752;9.088;2023-04-15T06:09:34;2.40;;;1.93;;
8183;SDS011;4133;48.752;9.088;2023-04-15T06:12:00;3.23;;;2.03;;
8183;SDS011;4133;48.752;9.088;2023-04-15T06:14:27;3.30;;;1.70;;
8183;SDS011;4133;48.752;9.088;2023-04-15T06:16:53;5.43;;;2.30;;
8183;SDS011;4133;48.752;9.088;2023-04-15T06:21:50;2.17;;;1.83;;
8183;SDS011;4133;48.752;9.088;2023-04-15T06:24:16;5.63;;;2.43;;
8183;SDS011;4133;48.752;9.088;2023-04-15T06:26:42;4.93;;;2.23;;
8183;SDS011;4133;48.752;9.088;2023-04-15T06:29:08;2.90;;;2.10;;
8183;SDS011;4133;48.752;9.088;2023-04-15T06:31:33;5.90;;;2.23;;
8183;SDS011;4133;48.752;9.088;2023-04-15T06:34:00;4.80;;;2.20;;
8183;SDS011;4133;48.752;9.088;2023-04-15T06:36:26;3.00;;;2.30;;
8183;SDS011;4133;48.752;9.088;2023-04-15T06:38:52;5.17;;;2.40;;
8183;SDS011;4133;48.752;9.088;2023-04-15T06:41:18;6.33;;;2.47;;
8183;SDS011;4133;48.752;9.088;2023-04-15T06:43:44;3.83;;;2.50;;
8183;SDS011;4133;48.752;9.088;2023-04-15T06:46:10;3.50;;;2.30;;
8183;SDS011;4133;48.752;9.088;2023-04-15T06:48:36;3.77;;;2.53;;
8183;SDS011;4133;48.752;9.088;2023-04-15T06:51:02;3.40;;;2.20;;
8183;SDS011;4133;48.752;9.088;2023-04-15T06:53:28;2.33;;;1.93;;
8183;SDS011;4133;48.752;9.088;2023-04-15T06:55:54;4.37;;;2.37;;
8183;SDS011;4133;48.752;9.088;2023-04-15T06:58:20;4.37;;;2.50;;
8183;SDS011;4133;48.752;9.088;2023-04-15T07:00:46;5.97;;;3.07;;
8183;SDS011;4133;48.752;9.088;2023-04-15T07:03:13;6.17;;;3.13;;
8183;SDS011;4133;48.752;9.088;2023-04-15T07:05:39;6.10;;;3.60;;
8183;SDS011;4133;48.752;9.088;2023-04-15T07:08:05;6.17;;;3.23;;
8183;SDS011;4133;48.752;9.088;2023-04-15T07:10:32;6.60;;;3.13;;
8183;SDS011;4133;48.752;9.088;2023-04-15T07:12:58;6.57;;;2.87;;
8183;SDS011;4133;48.752;9.088;2023-04-15T07:15:25;3.97;;;2.20;;
8183;SDS011;4133;48.752;9.088;2023-04-15T07:17:51;4.53;;;2.03;;
8183;SDS011;4133;48.752;9.088;2023-04-15T07:20:17;3.73;;;2.20;;
8183;SDS011;4133;48.752;9.088;2023-04-15T07:22:43;5.27;;;2.20;;
8183;SDS011;4133;48.752;9.088;2023-04-15T07:25:09;7.10;;;2.07;;
8183;SDS011;4133;48.752;9.088;2023-04-15T07:27:35;5.13;;;2.30;;
8183;SDS011;4133;48.752;9.088;2023-04-15T07:30:01;3.75;;;1.80;;
8183;SDS011;4133;48.752;9.088;2023-04-15T07:32:28;5.13;;;1.80;;
8183;SDS011;4133;48.752;9.088;2023-04-15T07:34:54;5.60;;;1.67;;
8183;SDS011;4133;48.752;9.088;2023-04-15T07:37:20;2.83;;;1.10;;
8183;SDS011;4133;48.752;9.088;2023-04-15T07:39:47;6.83;;;1.40;;
8183;SDS011;4133;48.752;9.088;2023-04-15T07:42:13;4.00;;;1.43;;
8183;SDS011;4133;48.752;9.088;2023-04-15T07:44:39;2.90;;;1.42;;
8183;SDS011;4133;48.752;9.088;2023-04-15T07:47:05;2.60;;;1.30;;
8183;SDS011;4133;48.752;9.088;2023-04-15T07:49:31;3.97;;;1.43;;
8183;SDS011;4133;48.752;9.088;2023-04-15T07:51:57;6.68;;;1.58;;
8183;SDS011;4133;48.752;9.088;2023-04-15T07:54:24;5.90;;;1.40;;
8183;SDS011;4133;48.752;9.088;2023-04-15T07:56:50;2.77;;;1.20;;
8183;SDS011;4133;48.752;9.088;2023-04-15T07:59:16;1.80;;;1.30;;
8183;SDS011;4133;48.752;9.088;2023-04-15T08:01:42;3.03;;;1.33;;
8183;SDS011;4133;48.752;9.088;2023-04-15T08:04:09;4.20;;;1.50;;
8183;SDS011;4133;48.752;9.088;2023-04-15T08:06:35;3.13;;;1.30;;
8183;SDS011;4133;48.752;9.088;2023-04-15T08:09:03;1.97;;;1.30;;
8183;SDS011;4133;48.752;9.088;2023-04-15T08:11:29;4.00;;;1.43;;
8183;SDS011;4133;48.752;9.088;2023-04-15T08:13:55;5.90;;;1.70;;
8183;SDS011;4133;48.752;9.088;2023-04-15T08:16:22;3.17;;;1.20;;
8183;SDS011;4133;48.752;9.088;2023-04-15T08:18:49;4.53;;;1.57;;
8183;SDS011;4133;48.752;9.088;2023-04-15T08:21:16;4.70;;;1.57;;
8183;SDS011;4133;48.752;9.088;2023-04-15T08:23:42;2.33;;;1.20;;
8183;SDS011;4133;48.752;9.088;2023-04-15T08:26:08;3.95;;;1.42;;
8183;SDS011;4133;48.752;9.088;2023-04-15T08:28:36;4.20;;;1.38;;
8183;SDS011;4133;48.752;9.088;2023-04-15T08:31:02;3.00;;;1.50;;
8183;SDS011;4133;48.752;9.088;2023-04-15T08:33:28;3.63;;;1.80;;
8183;SDS011;4133;48.752;9.088;2023-04-15T08:35:54;2.85;;;1.35;;
8183;SDS011;4133;48.752;9.088;2023-04-15T08:38:20;4.22;;;1.38;;
8183;SDS011;4133;48.752;9.088;2023-04-15T08:40:46;3.95;;;1.50;;
8183;SDS011;4133;48.752;9.088;2023-04-15T08:43:23;2.70;;;1.15;;
8183;SDS011;4133;48.752;9.088;2023-04-15T08:45:52;2.53;;;1.60;;
8183;SDS011;4133;48.752;9.088;2023-04-15T08:48:18;2.65;;;1.15;;
8183;SDS011;4133;48.752;9.088;2023-04-15T08:50:50;1.75;;;1.20;;
8183;SDS011;4133;48.752;9.088;2023-04-15T08:53:16;2.28;;;1.30;;
8183;SDS011;4133;48.752;9.088;2023-04-15T08:55:43;2.85;;;1.27;;
8183;SDS011;4133;48.752;9.088;2023-04-15T08:58:10;2.83;;;1.30;;
8183;SDS011;4133;48.752;9.088;2023-04-15T09:00:36;3.80;;;1.40;;
8183;SDS011;4133;48.752;9.088;2023-04-15T09:03:06;3.03;;;1.45;;
8183;SDS011;4133;48.752;9.088;2023-04-15T09:05:33;2.95;;;1.52;;
8183;SDS011;4133;48.752;9.088;2023-04-15T09:07:59;4.22;;;1.67;;
8183;SDS011;4133;48.752;9.088;2023-04-15T09:10:26;2.20;;;1.45;;
8183;SDS011;4133;48.752;9.088;2023-04-15T09:12:52;2.58;;;1.50;;
8183;SDS011;4133;48.752;9.088;2023-04-15T09:15:18;5.85;;;1.60;;
8183;SDS011;4133;48.752;9.088;2023-04-15T09:17:44;5.03;;;1.60;;
8183;SDS011;4133;48.752;9.088;2023-04-15T09:20:11;3.85;;;1.35;;
8183;SDS011;4133;48.752;9.088;2023-04-15T09:22:38;2.10;;;1.30;;
8183;SDS011;4133;48.752;9.088;2023-04-15T09:25:26;3.85;;;1.80;;
8183;SDS011;4133;48.752;9.088;2023-04-15T09:27:53;5.85;;;1.70;;
8183;SDS011;4133;48.752;9.088;2023-04-15T09:30:19;4.22;;;1.80;;
8183;SDS011;4133;48.752;9.088;2023-04-15T09:32:49;2.22;;;1.80;;
8183;SDS011;4133;48.752;9.088;2023-04-15T09:35:16;2.13;;;1.70;;
8183;SDS011;4133;48.752;9.088;2023-04-15T09:37:42;2.80;;;1.50;;
8183;SDS011;4133;48.752;9.088;2023-04-15T09:40:08;3.25;;;1.58;;
8183;SDS011;4133;48.752;9.088;2023-04-15T09:42:34;4.95;;;1.90;;
8183;SDS011;4133;48.752;9.088;2023-04-15T09:45:10;5.75;;;2.00;;
8183;SDS011;4133;48.752;9.088;2023-04-15T09:47:36;3.50;;;1.83;;
8183;SDS011;4133;48.752;9.088;2023-04-15T09:53:07;3.45;;;1.90;;
8183;SDS011;4133;48.752;9.088;2023-04-15T09:55:34;4.07;;;2.13;;
8183;SDS011;4133;48.752;9.088;2023-04-15T09:57:59;4.55;;;2.25;;
8183;SDS011;4133;48.752;9.088;2023-04-15T10:00:25;3.83;;;1.50;;
8183;SDS011;4133;48.752;9.088;2023-04-15T10:02:53;2.72;;;1.95;;
8183;SDS011;4133;48.752;9.088;2023-04-15T10:05:22;2.78;;;1.77;;
8183;SDS011;4133;48.752;9.088;2023-04-15T10:07:48;4.82;;;2.15;;
8183;SDS011;4133;48.752;9.088;2023-04-15T10:10:14;2.67;;;2.00;;
8183;SDS011;4133;48.752;9.088;2023-04-15T10:12:41;2.22;;;1.48;;
8183;SDS011;4133;48.752;9.088;2023-04-15T10:15:08;4.85;;;1.70;;
8183;SDS011;4133;48.752;9.088;2023-04-15T10:17:37;2.90;;;1.70;;
8183;SDS011;4133;48.752;9.088;2023-04-15T10:20:03;3.42;;;1.70;;
8183;SDS011;4133;48.752;9.088;2023-04-15T10:22:30;5.28;;;1.85;;
8183;SDS011;4133;48.752;9.088;2023-04-15T10:24:57;3.10;;;1.55;;
8183;SDS011;4133;48.752;9.088;2023-04-15T10:27:24;3.22;;;1.90;;
8183;SDS011;4133;48.752;9.088;2023-04-15T10:29:51;4.10;;;2.08;;
8183;SDS011;4133;48.752;9.088;2023-04-15T10:32:18;3.67;;;2.28;;
8183;SDS011;4133;48.752;9.088;2023-04-15T10:34:45;4.70;;;2.03;;
8183;SDS011;4133;48.752;9.088;2023-04-15T10:37:11;5.47;;;2.25;;
8183;SDS011;4133;48.752;9.088;2023-04-15T10:39:38;3.80;;;2.40;;
8183;SDS011;4133;48.752;9.088;2023-04-15T10:42:12;3.42;;;2.25;;
8183;SDS011;4133;48.752;9.088;2023-04-15T10:44:41;2.95;;;1.90;;
8183;SDS011;4133;48.752;9.088;2023-04-15T10:47:14;5.38;;;2.30;;
8183;SDS011;4133;48.752;9.088;2023-04-15T10:52:36;4.32;;;2.25;;
8183;SDS011;4133;48.752;9.088;2023-04-15T10:55:12;3.65;;;2.30;;
8183;SDS011;4133;48.752;9.088;2023-04-15T10:57:41;6.45;;;2.47;;
8183;SDS011;4133;48.752;9.088;2023-04-15T11:05:05;5.90;;;2.30;;
8183;SDS011;4133;48.752;9.088;2023-04-15T11:07:38;4.25;;;2.28;;
8183;SDS011;4133;48.752;9.088;2023-04-15T11:10:51;4.55;;;2.20;;
8183;SDS011;4133;48.752;9.088;2023-04-15T11:13:24;3.03;;;2.05;;
8183;SDS011;4133;48.752;9.088;2023-04-15T11:15:46;4.05;;;2.20;;
8183;SDS011;4133;48.752;9.088;2023-04-15T11:18:25;5.00;;;2.28;;
8183;SDS011;4133;48.752;9.088;2023-04-15T11:20:56;4.63;;;2.05;;
8183;SDS011;4133;48.752;9.088;2023-04-15T11:23:30;4.53;;;2.20;;
8183;SDS011;4133;48.752;9.088;2023-04-15T11:25:57;3.42;;;1.80;;
8183;SDS011;4133;48.752;9.088;2023-04-15T11:28:27;4.20;;;2.10;;
8183;SDS011;4133;48.752;9.088;2023-04-15T11:30:53;4.45;;;2.28;;
8183;SDS011;4133;48.752;9.088;2023-04-15T11:33:19;4.13;;;2.17;;
8183;SDS011;4133;48.752;9.088;2023-04-15T11:35:46;4.22;;;1.95;;
8183;SDS011;4133;48.752;9.088;2023-04-15T11:38:12;5.40;;;2.13;;
8183;SDS011;4133;48.752;9.088;2023-04-15T11:40:39;4.40;;;2.25;;
8183;SDS011;4133;48.752;9.088;2023-04-15T11:43:12;6.70;;;2.42;;
8183;SDS011;4133;48.752;9.088;2023-04-15T11:45:53;6.18;;;2.35;;
8183;SDS011;4133;48.752;9.088;2023-04-15T11:48:21;3.15;;;2.08;;
8183;SDS011;4133;48.752;9.088;2023-04-15T11:50:51;3.97;;;2.05;;
8183;SDS011;4133;48.752;9.088;2023-04-15T11:53:18;5.05;;;2.15;;
8183;SDS011;4133;48.752;9.088;2023-04-15T11:55:46;3.70;;;2.15;;
8183;SDS011;4133;48.752;9.088;2023-04-15T11:58:16;3.78;;;2.20;;
8183;SDS011;4133;48.752;9.088;2023-04-15T12:11:16;5.72;;;2.22;;
8183;SDS011;4133;48.752;9.088;2023-04-15T12:13:43;4.75;;;1.90;;
8183;SDS011;4133;48.752;9.088;2023-04-15T12:16:09;5.27;;;2.20;;
8183;SDS011;4133;48.752;9.088;2023-04-15T12:18:38;3.63;;;2.00;;
8183;SDS011;4133;48.752;9.088;2023-04-15T12:21:10;4.90;;;2.35;;
8183;SDS011;4133;48.752;9.088;2023-04-15T12:23:37;4.78;;;2.50;;
8183;SDS011;4133;48.752;9.088;2023-04-15T12:26:04;5.65;;;2.67;;
8183;SDS011;4133;48.752;9.088;2023-04-15T12:28:31;5.97;;;2.40;;
8183;SDS011;4133;48.752;9.088;2023-04-15T12:30:59;3.85;;;1.98;;
8183;SDS011;4133;48.752;9.088;2023-04-15T12:33:35;3.85;;;2.15;;
8183;SDS011;4133;48.752;9.088;2023-04-15T12:36:01;5.03;;;2.22;;
8183;SDS011;4133;48.752;9.088;2023-04-15T12:38:27;3.25;;;1.98;;
8183;SDS011;4133;48.752;9.088;2023-04-15T12:40:53;4.95;;;2.00;;
8183;SDS011;4133;48.752;9.088;2023-04-15T12:43:19;4.57;;;1.98;;
8183;SDS011;4133;48.752;9.088;2023-04-15T12:45:45;3.70;;;1.90;;
8183;SDS011;4133;48.752;9.088;2023-04-15T12:48:11;3.90;;;1.98;;
8183;SDS011;4133;48.752;9.088;2023-04-15T12:50:48;3.75;;;2.03;;
8183;SDS011;4133;48.752;9.088;2023-04-15T12:53:15;3.20;;;2.30;;
8183;SDS011;4133;48.752;9.088;2023-04-15T12:55:41;3.83;;;2.10;;
8183;SDS011;4133;48.752;9.088;2023-04-15T12:58:07;3.88;;;2.33;;
8183;SDS011;4133;48.752;9.088;2023-04-15T13:00:33;3.70;;;2.33;;
8183;SDS011;4133;48.752;9.088;2023-04-15T13:02:59;4.05;;;2.33;;
8183;SDS011;4133;48.752;9.088;2023-04-15T13:05:25;5.28;;;1.95;;
8183;SDS011;4133;48.752;9.088;2023-04-15T13:07:51;2.97;;;1.83;;
8183;SDS011;4133;48.752;9.088;2023-04-15T13:10:17;5.18;;;1.92;;
8183;SDS011;4133;48.752;9.088;2023-04-15T13:12:43;4.55;;;1.88;;
8183;SDS011;4133;48.752;9.088;2023-04-15T13:15:11;2.05;;;1.58;;
8183;SDS011;4133;48.752;9.088;2023-04-15T13:17:37;2.20;;;2.00;;
8183;SDS011;4133;48.752;9.088;2023-04-15T13:20:03;3.95;;;1.85;;
8183;SDS011;4133;48.752;9.088;2023-04-15T13:22:29;2.30;;;1.90;;
8183;SDS011;4133;48.752;9.088;2023-04-15T13:24:55;3.47;;;1.80;;
8183;SDS011;4133;48.752;9.088;2023-04-15T13:27:21;2.85;;;1.92;;
8183;SDS011;4133;48.752;9.088;2023-04-15T13:29:47;3.63;;;2.00;;
8183;SDS011;4133;48.752;9.088;2023-04-15T13:32:13;3.85;;;1.92;;
8183;SDS011;4133;48.752;9.088;2023-04-15T13:34:39;3.57;;;1.63;;
8183;SDS011;4133;48.752;9.088;2023-04-15T13:37:06;2.95;;;1.90;;
8183;SDS011;4133;48.752;9.088;2023-04-15T13:39:32;2.03;;;1.60;;
8183;SDS011;4133;48.752;9.088;2023-04-15T13:41:58;4.53;;;1.90;;
8183;SDS011;4133;48.752;9.088;2023-04-15T13:44:24;3.30;;;1.70;;
8183;SDS011;4133;48.752;9.088;2023-04-15T13:46:50;3.73;;;1.50;;
8183;SDS011;4133;48.752;9.088;2023-04-15T13:49:29;3.37;;;1.53;;
8183;SDS011;4133;48.752;9.088;2023-04-15T13:51:55;3.60;;;1.50;;
8183;SDS011;4133;48.752;9.088;2023-04-15T13:54:21;2.33;;;1.23;;
8183;SDS011;4133;48.752;9.088;2023-04-15T13:56:47;1.20;;;1.10;;
8183;SDS011;4133;48.752;9.088;2023-04-15T13:59:13;2.87;;;1.30;;
8183;SDS011;4133;48.752;9.088;2023-04-15T14:01:39;1.98;;;1.23;;
8183;SDS011;4133;48.752;9.088;2023-04-15T14:04:05;3.83;;;1.38;;
8183;SDS011;4133;48.752;9.088;2023-04-15T14:06:31;3.17;;;1.50;;
8183;SDS011;4133;48.752;9.088;2023-04-15T14:08:57;2.15;;;1.30;;
8183;SDS011;4133;48.752;9.088;2023-04-15T14:11:23;2.25;;;1.40;;
8183;SDS011;4133;48.752;9.088;2023-04-15T14:13:49;1.30;;;0.93;;
8183;SDS011;4133;48.752;9.088;2023-04-15T14:16:15;1.77;;;1.13;;
8183;SDS011;4133;48.752;9.088;2023-04-15T14:18:41;2.65;;;1.30;;
8183;SDS011;4133;48.752;9.088;2023-04-15T14:21:08;1.50;;;1.00;;
8183;SDS011;4133;48.752;9.088;2023-04-15T14:23:34;1.60;;;0.80;;
8183;SDS011;4133;48.752;9.088;2023-04-15T14:26:00;0.87;;;0.70;;
8183;SDS011;4133;48.752;9.088;2023-04-15T14:28:26;0.93;;;0.85;;
8183;SDS011;4133;48.752;9.088;2023-04-15T14:30:52;2.00;;;1.20;;
8183;SDS011;4133;48.752;9.088;2023-04-15T14:33:18;4.57;;;1.40;;
8183;SDS011;4133;48.752;9.088;2023-04-15T14:35:44;1.40;;;1.30;;
8183;SDS011;4133;48.752;9.088;2023-04-15T14:38:10;1.93;;;1.20;;
8183;SDS011;4133;48.752;9.088;2023-04-15T14:40:36;2.23;;;1.53;;
8183;SDS011;4133;48.752;9.088;2023-04-15T14:43:02;4.03;;;1.60;;
8183;SDS011;4133;48.752;9.088;2023-04-15T14:45:29;2.50;;;1.57;;
8183;SDS011;4133;48.752;9.088;2023-04-15T14:47:55;2.53;;;1.70;;
8183;SDS011;4133;48.752;9.088;2023-04-15T14:50:22;2.13;;;1.50;;
8183;SDS011;4133;48.752;9.088;2023-04-15T14:52:48;2.10;;;1.67;;
8183;SDS011;4133;48.752;9.088;2023-04-15T14:55:14;3.13;;;1.70;;
8183;SDS011;4133;48.752;9.088;2023-04-15T14:57:40;3.60;;;1.57;;
8183;SDS011;4133;48.752;9.088;2023-04-15T15:00:07;3.07;;;1.43;;
8183;SDS011;4133;48.752;9.088;2023-04-15T15:02:34;2.20;;;1.60;;
8183;SDS011;4133;48.752;9.088;2023-04-15T15:05:00;1.73;;;1.50;;
8183;SDS011;4133;48.752;9.088;2023-04-15T15:07:27;2.43;;;1.47;;
8183;SDS011;4133;48.752;9.088;2023-04-15T15:09:53;2.93;;;1.70;;
8183;SDS011;4133;48.752;9.088;2023-04-15T15:12:19;5.07;;;2.00;;
8183;SDS011;4133;48.752;9.088;2023-04-15T15:14:48;3.67;;;2.00;;
8183;SDS011;4133;48.752;9.088;2023-04-15T15:17:14;3.93;;;1.90;;
8183;SDS011;4133;48.752;9.088;2023-04-15T15:19:40;2.47;;;1.60;;
8183;SDS011;4133;48.752;9.088;2023-04-15T15:22:06;1.93;;;1.50;;
8183;SDS011;4133;48.752;9.088;2023-04-15T15:24:32;2.77;;;2.00;;
8183;SDS011;4133;48.752;9.088;2023-04-15T15:26:58;1.87;;;1.40;;
8183;SDS011;4133;48.752;9.088;2023-04-15T15:29:25;3.00;;;1.90;;
8183;SDS011;4133;48.752;9.088;2023-04-15T15:31:51;4.07;;;2.10;;
8183;SDS011;4133;48.752;9.088;2023-04-15T15:34:17;2.57;;;1.67;;
8183;SDS011;4133;48.752;9.088;2023-04-15T15:36:43;3.20;;;1.60;;
8183;SDS011;4133;48.752;9.088;2023-04-15T15:39:09;3.53;;;1.67;;